Time;durP1;ratioP1;P1;durP2;ratioP2;P2;SDS_P1;SDS_P2;PMS_P1;PMS_P2;Temp;Humidity;BMP_temperature;BMP_pressure;BME280_temperature;BME280_humidity;BME280_pressure;Samples;Min_cycle;Max_cycle;Signal;HPM_P1;HPM_P2
2021/09/07 00:00:22;;;;;;;30.15;16.38;;;20.60;85.80;;;;;;4966557;28;20263;-69
2021/09/07 00:02:47;;;;;;;28.38;16.75;;;20.50;85.80;;;;;;4966834;28;20222;-69
2021/09/07 00:05:14;;;;;;;31.05;17.48;;;20.50;85.80;;;;;;4966048;28;20277;-69
2021/09/07 00:07:40;;;;;;;28.42;17.10;;;20.50;85.80;;;;;;4967707;28;20205;-70
2021/09/07 00:10:09;;;;;;;32.08;17.73;;;20.50;85.60;;;;;;4969121;28;20345;-70
2021/09/07 00:12:35;;;;;;;26.75;16.60;;;20.40;85.40;;;;;;4967246;28;20190;-69
2021/09/07 00:15:03;;;;;;;29.00;17.58;;;20.40;85.30;;;;;;4964963;28;20185;-69
2021/09/07 00:17:29;;;;;;;27.55;17.33;;;20.40;85.30;;;;;;4967383;28;20674;-70
2021/09/07 00:19:55;;;;;;;27.85;16.90;;;20.30;85.20;;;;;;4966004;28;20205;-70
2021/09/07 00:22:20;;;;;;;29.77;16.50;;;20.30;85.20;;;;;;4956209;28;20201;-69
2021/09/07 00:24:46;;;;;;;27.60;17.08;;;20.30;85.10;;;;;;4966389;28;20566;-70
2021/09/07 00:27:11;;;;;;;28.35;17.15;;;20.30;85.10;;;;;;4967201;28;20241;-68
2021/09/07 00:29:37;;;;;;;29.35;17.35;;;20.30;85.90;;;;;;4967722;28;20214;-69
2021/09/07 00:32:03;;;;;;;28.63;16.77;;;20.30;85.00;;;;;;4966076;28;20196;-69
2021/09/07 00:34:29;;;;;;;27.25;16.90;;;20.30;85.00;;;;;;4966872;28;20196;-69
2021/09/07 00:36:54;;;;;;;32.05;17.00;;;20.30;85.00;;;;;;4966959;28;20564;-69
2021/09/07 00:39:20;;;;;;;30.02;16.90;;;20.30;85.00;;;;;;4966453;28;20189;-69
2021/09/07 00:41:46;;;;;;;28.80;17.45;;;20.20;85.00;;;;;;4965602;28;20193;-67
2021/09/07 00:44:16;;;;;;;33.13;17.15;;;20.20;85.10;;;;;;4967842;28;20210;-68
2021/09/07 00:46:44;;;;;;;31.13;17.58;;;20.20;85.30;;;;;;4963252;28;20741;-69
2021/09/07 00:49:11;;;;;;;31.42;17.05;;;20.10;85.30;;;;;;4965684;28;20273;-69
2021/09/07 00:51:38;;;;;;;28.73;17.63;;;20.10;85.50;;;;;;4960722;28;20186;-69
2021/09/07 00:54:04;;;;;;;27.38;16.98;;;20.00;85.50;;;;;;4970794;28;20199;-69
2021/09/07 00:56:32;;;;;;;32.95;16.98;;;20.00;85.60;;;;;;4975365;28;20634;-70
2021/09/07 00:58:59;;;;;;;32.42;17.40;;;20.00;85.60;;;;;;4969986;28;20193;-71
2021/09/07 01:01:24;;;;;;;27.17;16.77;;;20.10;85.70;;;;;;4965729;28;20237;-69
2021/09/07 01:03:50;;;;;;;29.17;17.27;;;20.00;85.70;;;;;;4960765;28;20299;-70
2021/09/07 01:06:16;;;;;;;27.45;17.20;;;20.10;85.90;;;;;;4971740;28;20206;-68
2021/09/07 01:08:44;;;;;;;27.67;17.48;;;20.00;85.90;;;;;;4969605;28;20193;-68
2021/09/07 01:11:10;;;;;;;35.05;17.67;;;20.00;86.00;;;;;;4972150;28;20193;-69
2021/09/07 01:13:36;;;;;;;27.52;17.33;;;20.00;86.00;;;;;;4948297;28;20185;-69
2021/09/07 01:16:01;;;;;;;31.70;17.85;;;20.00;86.20;;;;;;4962872;28;20213;-69
2021/09/07 01:18:28;;;;;;;28.58;17.67;;;20.00;86.30;;;;;;4962164;28;20190;-69
2021/09/07 01:20:53;;;;;;;30.80;18.27;;;19.90;86.40;;;;;;4965144;28;20205;-68
2021/09/07 01:23:19;;;;;;;30.10;16.92;;;19.90;86.60;;;;;;4964540;28;20514;-70
2021/09/07 01:25:45;;;;;;;29.55;17.23;;;19.90;86.70;;;;;;4960133;28;20294;-68
2021/09/07 01:28:14;;;;;;;32.42;18.15;;;19.90;86.90;;;;;;4963187;28;20642;-69
2021/09/07 01:30:42;;;;;;;28.63;17.75;;;19.80;87.10;;;;;;4961464;28;20232;-69
2021/09/07 01:33:10;;;;;;;28.95;17.95;;;19.80;87.30;;;;;;4943546;28;20273;-69
2021/09/07 01:35:37;;;;;;;33.45;17.30;;;19.80;87.40;;;;;;4965311;28;20192;-68
2021/09/07 01:38:03;;;;;;;33.65;19.75;;;19.80;87.70;;;;;;4965321;28;20190;-70
2021/09/07 01:40:28;;;;;;;28.20;18.38;;;19.80;87.90;;;;;;4972941;28;20189;-69
2021/09/07 01:42:54;;;;;;;35.70;19.25;;;19.70;88.00;;;;;;4946913;28;20196;-69
2021/09/07 01:45:20;;;;;;;29.92;18.83;;;19.70;88.20;;;;;;4945002;28;20229;-69
2021/09/07 01:47:46;;;;;;;32.72;18.73;;;19.70;88.50;;;;;;4967725;28;20356;-69
2021/09/07 01:50:12;;;;;;;27.95;18.00;;;19.60;88.60;;;;;;4962158;28;20202;-71
2021/09/07 01:52:38;;;;;;;31.92;18.52;;;19.60;88.90;;;;;;4963696;28;20190;-69
2021/09/07 01:55:04;;;;;;;30.58;18.70;;;19.60;89.20;;;;;;4965518;28;20193;-70
2021/09/07 01:57:31;;;;;;;33.88;20.05;;;19.50;89.40;;;;;;4956034;28;20315;-69
2021/09/07 01:59:57;;;;;;;34.17;19.38;;;19.50;89.60;;;;;;4965825;28;20177;-70
2021/09/07 02:02:23;;;;;;;32.00;18.58;;;19.50;89.90;;;;;;4971863;28;20209;-68
2021/09/07 02:04:49;;;;;;;32.63;19.38;;;19.40;90.00;;;;;;4974960;28;20225;-68
2021/09/07 02:07:15;;;;;;;32.92;19.98;;;19.40;90.00;;;;;;4969845;28;20194;-69
2021/09/07 02:09:41;;;;;;;30.48;18.83;;;19.40;90.10;;;;;;4958749;28;20177;-70
2021/09/07 02:12:10;;;;;;;30.08;19.02;;;19.40;90.30;;;;;;4955057;28;20189;-70
2021/09/07 02:14:36;;;;;;;31.58;18.55;;;19.30;90.30;;;;;;4976627;28;20194;-70
2021/09/07 02:17:03;;;;;;;33.83;20.45;;;19.30;90.40;;;;;;4952494;28;20685;-70
2021/09/07 02:19:28;;;;;;;33.97;20.20;;;19.30;90.40;;;;;;4973775;28;20256;-70
2021/09/07 02:21:54;;;;;;;32.85;19.45;;;19.30;90.50;;;;;;4962073;28;20188;-70
2021/09/07 02:24:21;;;;;;;32.80;20.35;;;19.30;90.60;;;;;;4971618;28;20197;-68
2021/09/07 02:26:47;;;;;;;38.70;20.75;;;19.20;90.70;;;;;;4974900;28;20525;-70
2021/09/07 02:29:12;;;;;;;31.70;20.35;;;19.20;90.80;;;;;;4977498;28;20217;-70
2021/09/07 02:31:41;;;;;;;37.15;20.65;;;19.20;90.90;;;;;;4975473;28;20206;-69
2021/09/07 02:34:08;;;;;;;35.03;21.05;;;19.20;90.90;;;;;;4956003;28;20182;-69
2021/09/07 02:36:36;;;;;;;36.38;20.38;;;19.20;91.00;;;;;;4971637;28;20194;-69
2021/09/07 02:39:04;;;;;;;35.45;21.00;;;19.10;91.00;;;;;;4952779;28;20244;-70
2021/09/07 02:41:30;;;;;;;35.75;20.70;;;19.10;91.10;;;;;;4980468;28;20186;-71
2021/09/07 02:43:56;;;;;;;31.45;19.67;;;19.10;91.30;;;;;;4968531;28;20210;-71
2021/09/07 02:46:22;;;;;;;38.55;21.42;;;19.10;91.40;;;;;;4959420;28;20232;-70
2021/09/07 02:48:48;;;;;;;35.05;20.70;;;19.10;91.60;;;;;;4970301;28;20197;-70
2021/09/07 02:51:14;;;;;;;38.97;21.17;;;19.00;91.70;;;;;;4955788;28;20190;-70
2021/09/07 02:53:40;;;;;;;33.95;20.63;;;19.00;91.80;;;;;;4950758;28;20610;-70
2021/09/07 02:56:06;;;;;;;35.78;21.23;;;19.00;91.90;;;;;;4955707;28;20268;-69
2021/09/07 02:58:32;;;;;;;34.22;21.35;;;18.90;92.00;;;;;;4967961;28;20918;-71
2021/09/07 03:00:59;;;;;;;35.17;21.40;;;18.90;92.20;;;;;;4976315;28;20209;-70
2021/09/07 03:03:25;;;;;;;32.40;20.40;;;18.90;92.30;;;;;;4941234;28;20570;-70
2021/09/07 03:05:52;;;;;;;32.47;20.17;;;18.80;92.50;;;;;;4925318;29;20191;-68
2021/09/07 03:08:20;;;;;;;35.80;21.60;;;18.80;92.60;;;;;;4944766;29;20233;-70
2021/09/07 03:10:46;;;;;;;37.42;22.65;;;18.80;92.80;;;;;;4932316;29;20215;-71
2021/09/07 03:13:11;;;;;;;43.17;21.98;;;18.70;93.00;;;;;;4930789;29;20611;-70
2021/09/07 03:15:39;;;;;;;42.30;23.48;;;18.70;93.10;;;;;;4938058;29;20250;-70
2021/09/07 03:18:05;;;;;;;41.75;22.40;;;18.70;93.20;;;;;;4935352;28;20644;-69
2021/09/07 03:20:32;;;;;;;38.22;22.85;;;18.60;93.30;;;;;;4933075;29;20211;-70
2021/09/07 03:22:58;;;;;;;39.97;23.25;;;18.60;93.40;;;;;;4928572;29;20281;-70
2021/09/07 03:25:25;;;;;;;43.70;23.70;;;18.60;93.40;;;;;;4937483;29;20203;-70
2021/09/07 03:27:52;;;;;;;40.80;24.08;;;18.60;93.60;;;;;;4940787;28;20187;-69
2021/09/07 03:30:19;;;;;;;39.92;23.48;;;18.50;93.60;;;;;;4935134;29;20814;-71
2021/09/07 03:32:45;;;;;;;43.50;22.90;;;18.50;93.70;;;;;;4934435;29;20272;-70
2021/09/07 03:35:10;;;;;;;37.60;24.05;;;18.40;93.80;;;;;;4939981;29;20198;-71
2021/09/07 03:37:36;;;;;;;38.10;22.95;;;18.40;93.90;;;;;;4929999;29;20658;-71
2021/09/07 03:40:04;;;;;;;37.60;24.15;;;18.40;94.00;;;;;;4932577;29;20191;-71
2021/09/07 03:42:34;;;;;;;39.72;23.38;;;18.40;94.10;;;;;;4930077;29;20206;-70
2021/09/07 03:45:01;;;;;;;40.90;22.52;;;18.30;94.20;;;;;;4928246;29;20809;-69
2021/09/07 03:47:27;;;;;;;37.45;22.58;;;18.30;94.60;;;;;;4928686;29;20286;-69
2021/09/07 03:49:53;;;;;;;45.53;24.38;;;18.30;94.40;;;;;;4932892;29;20187;-69
2021/09/07 03:52:19;;;;;;;39.28;23.58;;;18.30;94.60;;;;;;4927994;29;20536;-68
2021/09/07 03:54:46;;;;;;;41.58;23.35;;;18.20;94.70;;;;;;4927074;29;20222;-68
2021/09/07 03:57:12;;;;;;;44.10;24.63;;;18.20;94.80;;;;;;4932654;29;20687;-70
2021/09/07 03:59:38;;;;;;;41.20;23.85;;;18.20;94.90;;;;;;4928085;29;20187;-70
2021/09/07 04:02:04;;;;;;;49.83;23.77;;;18.20;95.00;;;;;;4931067;29;20333;-70
2021/09/07 04:04:30;;;;;;;43.78;24.90;;;18.20;95.10;;;;;;4971114;28;20226;-69
2021/09/07 04:06:57;;;;;;;41.45;23.30;;;18.20;95.20;;;;;;4970288;28;20190;-70
2021/09/07 04:09:24;;;;;;;42.35;24.67;;;18.20;95.20;;;;;;4965285;28;20190;-70
2021/09/07 04:11:51;;;;;;;41.20;26.13;;;18.20;95.30;;;;;;4968583;28;20193;-70
2021/09/07 04:14:17;;;;;;;40.95;24.08;;;18.20;95.30;;;;;;4948970;28;20195;-69
2021/09/07 04:16:43;;;;;;;38.90;24.05;;;18.20;95.40;;;;;;4950384;28;20550;-69
2021/09/07 04:19:10;;;;;;;43.00;24.33;;;18.10;95.40;;;;;;4967114;28;20193;-69
2021/09/07 04:21:36;;;;;;;40.38;24.23;;;18.10;95.50;;;;;;4966993;28;20622;-69
2021/09/07 04:24:04;;;;;;;42.03;24.23;;;18.20;95.60;;;;;;4965163;28;20218;-70
2021/09/07 04:26:30;;;;;;;37.53;23.40;;;18.20;95.60;;;;;;4968075;28;20190;-70
2021/09/07 04:28:56;;;;;;;42.60;24.35;;;18.20;95.70;;;;;;4966967;28;20238;-69
2021/09/07 04:31:22;;;;;;;39.85;23.75;;;18.20;95.70;;;;;;4967937;28;20197;-71
2021/09/07 04:33:48;;;;;;;45.00;24.92;;;18.20;95.70;;;;;;4965906;28;20185;-70
2021/09/07 04:36:13;;;;;;;43.70;25.30;;;18.30;95.80;;;;;;4966615;28;20186;-69
2021/09/07 04:38:39;;;;;;;45.05;24.42;;;18.30;95.80;;;;;;4951483;28;20198;-69
2021/09/07 04:41:05;;;;;;;44.33;24.75;;;18.30;95.80;;;;;;4966599;28;20344;-68
2021/09/07 04:43:31;;;;;;;46.53;25.77;;;18.40;95.80;;;;;;4956508;28;20186;-67
2021/09/07 04:45:57;;;;;;;43.88;24.75;;;18.40;95.80;;;;;;4969205;28;20193;-67
2021/09/07 04:48:23;;;;;;;43.67;25.38;;;18.40;95.80;;;;;;4972899;28;20279;-65
2021/09/07 04:50:50;;;;;;;42.83;24.65;;;18.40;95.80;;;;;;4968474;28;20567;-68
2021/09/07 04:53:15;;;;;;;41.95;24.58;;;18.40;95.80;;;;;;4973381;28;20284;-68
2021/09/07 04:55:41;;;;;;;45.90;24.25;;;18.50;95.80;;;;;;4966335;28;20190;-68
2021/09/07 04:58:07;;;;;;;43.53;25.25;;;18.40;95.80;;;;;;4965510;28;20265;-68
2021/09/07 05:00:32;;;;;;;43.50;25.02;;;18.40;95.90;;;;;;4965538;28;20186;-67
2021/09/07 05:02:58;;;;;;;39.17;23.80;;;18.50;95.90;;;;;;4966869;28;20217;-68
2021/09/07 05:05:24;;;;;;;42.42;24.90;;;18.50;95.90;;;;;;4967893;28;20361;-67
2021/09/07 05:07:49;;;;;;;43.92;25.10;;;18.50;96.00;;;;;;4965385;28;20297;-67
2021/09/07 05:10:15;;;;;;;43.55;25.10;;;18.50;96.00;;;;;;4964503;28;20185;-68
2021/09/07 05:12:41;;;;;;;45.75;24.73;;;18.50;96.00;;;;;;4965255;28;20193;-68
2021/09/07 05:15:07;;;;;;;42.53;24.45;;;18.50;96.00;;;;;;4966939;28;20194;-67
2021/09/07 05:17:33;;;;;;;53.22;25.27;;;18.50;96.00;;;;;;4963614;28;20216;-69
2021/09/07 05:19:59;;;;;;;44.80;24.90;;;18.60;96.10;;;;;;4966685;28;20568;-68
2021/09/07 05:22:24;;;;;;;49.92;25.83;;;18.50;96.00;;;;;;4965461;28;20197;-67
2021/09/07 05:24:50;;;;;;;41.50;25.42;;;18.60;96.10;;;;;;4947877;28;20221;-67
2021/09/07 05:27:16;;;;;;;50.40;26.63;;;18.60;96.10;;;;;;4947811;28;20617;-69
2021/09/07 05:29:41;;;;;;;44.50;24.90;;;18.60;96.20;;;;;;4965921;28;20175;-68
2021/09/07 05:32:07;;;;;;;38.95;24.85;;;18.60;96.20;;;;;;4965670;28;20193;-69
2021/09/07 05:34:33;;;;;;;43.97;25.23;;;18.60;96.20;;;;;;4969526;28;20197;-67
2021/09/07 05:36:59;;;;;;;39.50;24.85;;;18.60;96.20;;;;;;4966894;28;20189;-68
2021/09/07 05:39:24;;;;;;;43.75;25.08;;;18.70;96.20;;;;;;4950341;28;20261;-68
2021/09/07 05:41:53;;;;;;;43.85;25.38;;;18.70;96.20;;;;;;4964918;28;20533;-67
2021/09/07 05:44:20;;;;;;;43.22;24.23;;;18.70;96.20;;;;;;4967281;28;20399;-66
2021/09/07 05:46:46;;;;;;;43.28;25.83;;;18.70;96.20;;;;;;4969109;28;20185;-69
2021/09/07 05:49:12;;;;;;;45.78;25.00;;;18.80;96.20;;;;;;4949164;28;20189;-67
2021/09/07 05:51:38;;;;;;;46.95;25.95;;;18.80;96.30;;;;;;4974128;28;20204;-66
2021/09/07 05:54:03;;;;;;;39.72;24.55;;;18.80;96.30;;;;;;4973514;28;20189;-67
2021/09/07 05:56:29;;;;;;;44.30;25.52;;;18.80;96.30;;;;;;4970621;28;20198;-68
2021/09/07 05:58:57;;;;;;;45.40;25.05;;;18.90;96.30;;;;;;4947583;28;20712;-68
2021/09/07 06:01:23;;;;;;;43.95;25.55;;;18.90;96.30;;;;;;4948571;28;20263;-68
2021/09/07 06:03:48;;;;;;;44.38;25.92;;;18.90;96.20;;;;;;4965926;28;20609;-68
2021/09/07 06:06:14;;;;;;;46.40;25.15;;;19.00;96.30;;;;;;4964035;28;20262;-68
2021/09/07 06:08:40;;;;;;;45.28;26.73;;;19.00;96.30;;;;;;4964196;28;20273;-68
2021/09/07 06:11:07;;;;;;;48.47;27.58;;;19.00;96.20;;;;;;4948661;28;20285;-68
2021/09/07 06:13:33;;;;;;;45.72;26.55;;;19.00;96.20;;;;;;4964623;28;20232;-69
2021/09/07 06:15:59;;;;;;;44.88;26.20;;;19.00;96.20;;;;;;4965421;28;20182;-68
2021/09/07 06:18:25;;;;;;;47.67;26.02;;;19.10;96.20;;;;;;4947989;28;20313;-68
2021/09/07 06:20:50;;;;;;;45.88;26.45;;;19.10;96.10;;;;;;4964761;28;20190;-68
2021/09/07 06:23:16;;;;;;;42.45;26.48;;;19.20;96.10;;;;;;4945939;28;20778;-68
2021/09/07 06:25:42;;;;;;;45.10;25.98;;;19.10;96.10;;;;;;4964245;28;20209;-67
2021/09/07 06:28:07;;;;;;;48.70;26.27;;;19.20;96.00;;;;;;4965621;28;20301;-68
2021/09/07 06:30:33;;;;;;;46.45;27.40;;;19.20;95.90;;;;;;4969270;28;20217;-69
2021/09/07 06:32:59;;;;;;;45.63;26.77;;;19.30;95.90;;;;;;4949429;28;20642;-69
2021/09/07 06:35:25;;;;;;;42.83;26.33;;;19.40;96.20;;;;;;4965825;28;20198;-69
2021/09/07 06:37:50;;;;;;;43.67;25.75;;;19.40;95.80;;;;;;4949285;28;20186;-70
2021/09/07 06:40:16;;;;;;;45.83;27.20;;;19.50;95.80;;;;;;4970740;28;20224;-71
2021/09/07 06:42:42;;;;;;;46.63;25.63;;;19.50;95.80;;;;;;4966256;28;20349;-70
2021/09/07 06:45:08;;;;;;;45.03;26.23;;;19.50;95.80;;;;;;4969024;28;20986;-69
2021/09/07 06:47:34;;;;;;;48.33;27.05;;;19.60;95.80;;;;;;4948251;28;20188;-71
2021/09/07 06:50:01;;;;;;;49.55;26.85;;;19.60;95.80;;;;;;4967663;28;20185;-69
2021/09/07 06:52:30;;;;;;;55.83;26.38;;;19.60;95.80;;;;;;4971733;28;20193;-69
2021/09/07 06:54:56;;;;;;;47.38;27.35;;;19.70;95.80;;;;;;4969537;28;20193;-69
2021/09/07 06:57:22;;;;;;;49.67;28.95;;;19.70;95.80;;;;;;4976898;28;20201;-69
2021/09/07 06:59:48;;;;;;;53.45;28.80;;;19.80;95.80;;;;;;4967152;28;20230;-70
2021/09/07 07:02:14;;;;;;;49.15;27.33;;;19.80;95.70;;;;;;4974166;28;20200;-69
2021/09/07 07:04:40;;;;;;;47.63;27.42;;;19.90;95.70;;;;;;4973254;28;20229;-71
2021/09/07 07:07:05;;;;;;;47.75;27.52;;;19.90;95.70;;;;;;4966458;28;21017;-70
2021/09/07 07:09:31;;;;;;;50.60;29.85;;;20.00;95.70;;;;;;4979519;28;20186;-69
2021/09/07 07:11:56;;;;;;;66.75;28.77;;;20.00;95.70;;;;;;4970246;28;20217;-70
2021/09/07 07:14:22;;;;;;;49.80;26.65;;;20.00;95.50;;;;;;4981041;28;20938;-71
2021/09/07 07:16:49;;;;;;;57.33;28.27;;;20.10;95.30;;;;;;4967999;28;20311;-69
2021/09/07 07:19:15;;;;;;;64.40;27.80;;;20.10;95.00;;;;;;4952322;28;20208;-69
2021/09/07 07:21:41;;;;;;;56.38;28.00;;;20.20;94.80;;;;;;4966753;28;20190;-69
2021/09/07 07:24:07;;;;;;;48.00;27.15;;;20.20;94.60;;;;;;4973361;28;20324;-70
2021/09/07 07:26:32;;;;;;;48.78;28.70;;;20.20;94.30;;;;;;4967292;28;20797;-69
2021/09/07 07:28:58;;;;;;;46.53;26.60;;;20.30;94.10;;;;;;4967362;28;20178;-69
2021/09/07 07:31:24;;;;;;;50.33;26.95;;;20.30;93.90;;;;;;4950957;28;20221;-69
2021/09/07 07:33:49;;;;;;;45.78;25.02;;;20.30;93.60;;;;;;4976596;28;20189;-69
2021/09/07 07:36:16;;;;;;;40.67;24.70;;;20.40;93.40;;;;;;4974855;28;20582;-69
2021/09/07 07:38:41;;;;;;;42.80;23.77;;;20.40;93.20;;;;;;4975184;28;20245;-69
2021/09/07 07:41:07;;;;;;;46.90;25.52;;;20.40;93.00;;;;;;4968017;28;20186;-70
2021/09/07 07:43:44;;;;;;;42.10;22.95;;;20.50;92.70;;;;;;4951823;28;20182;-68
2021/09/07 07:46:10;;;;;;;49.90;23.90;;;20.50;92.50;;;;;;4970563;28;20267;-68
2021/09/07 07:48:35;;;;;;;42.90;25.65;;;20.60;92.30;;;;;;4966808;28;20186;-69
2021/09/07 07:51:01;;;;;;;41.00;24.70;;;20.60;92.20;;;;;;4963752;28;22084;-69
2021/09/07 07:53:27;;;;;;;43.85;24.17;;;20.60;92.00;;;;;;4973095;28;20196;-72
2021/09/07 07:55:52;;;;;;;45.55;25.00;;;20.70;92.00;;;;;;4979281;28;20192;-71
2021/09/07 07:58:18;;;;;;;44.55;25.73;;;20.80;91.90;;;;;;4968514;28;20262;-71
2021/09/07 08:00:45;;;;;;;40.90;24.65;;;20.90;91.90;;;;;;4957636;28;20190;-69
2021/09/07 08:03:12;;;;;;;38.58;23.90;;;20.90;91.80;;;;;;4965956;28;20682;-70
2021/09/07 08:05:38;;;;;;;43.38;24.02;;;21.00;91.70;;;;;;4970258;28;20213;-70
2021/09/07 08:08:05;;;;;;;42.53;23.77;;;21.10;91.50;;;;;;4968178;28;20202;-69
2021/09/07 08:10:31;;;;;;;37.22;23.70;;;21.20;91.40;;;;;;4970442;28;20185;-71
2021/09/07 08:12:56;;;;;;;43.00;24.10;;;21.30;91.20;;;;;;4982094;28;20197;-71
2021/09/07 08:15:22;;;;;;;45.22;24.50;;;21.40;90.90;;;;;;4971624;28;20301;-70
2021/09/07 08:17:49;;;;;;;37.58;22.05;;;21.40;90.60;;;;;;4967993;28;20533;-71
2021/09/07 08:20:15;;;;;;;40.35;22.58;;;21.50;90.30;;;;;;4972659;28;25065;-69
2021/09/07 08:22:41;;;;;;;41.88;22.40;;;21.60;90.00;;;;;;4953187;28;20194;-68
2021/09/07 08:25:07;;;;;;;41.28;23.60;;;21.70;89.40;;;;;;4969574;28;20241;-69
2021/09/07 08:27:33;;;;;;;37.92;22.60;;;21.80;88.70;;;;;;4954805;28;20185;-69
2021/09/07 08:29:58;;;;;;;36.30;22.13;;;21.90;88.00;;;;;;4974430;28;20181;-69
2021/09/07 08:32:24;;;;;;;36.05;22.20;;;22.00;87.30;;;;;;4965979;28;20209;-69
2021/09/07 08:34:49;;;;;;;34.60;21.33;;;22.10;86.50;;;;;;4966339;28;20186;-68
2021/09/07 08:37:15;;;;;;;35.90;22.05;;;22.20;86.00;;;;;;4967098;28;20193;-68
2021/09/07 08:39:41;;;;;;;36.00;20.83;;;22.20;85.40;;;;;;4965730;28;20086;-69
2021/09/07 08:42:11;;;;;;;33.60;20.67;;;22.40;85.10;;;;;;4947329;28;20325;-68
2021/09/07 08:44:44;;;;;;;34.88;21.08;;;22.50;84.80;;;;;;4967072;28;20189;-69
2021/09/07 08:47:15;;;;;;;33.63;19.95;;;22.70;84.40;;;;;;4968482;28;20197;-70
2021/09/07 08:49:42;;;;;;;32.92;18.58;;;22.90;83.90;;;;;;4966103;28;20188;-69
2021/09/07 08:52:08;;;;;;;34.80;18.48;;;23.00;82.80;;;;;;4971158;28;20233;-69
2021/09/07 08:54:35;;;;;;;33.30;20.05;;;23.10;82.10;;;;;;4953471;28;20190;-68
2021/09/07 08:57:01;;;;;;;40.30;22.00;;;23.30;81.20;;;;;;4966928;28;20046;-70
2021/09/07 08:59:26;;;;;;;;;;;23.40;80.50;;;;;;4952535;28;19953;-68
2021/09/07 09:01:54;;;;;;;;;;;23.50;79.70;;;;;;4965518;28;19944;-69
2021/09/07 09:04:27;;;;;;;30.77;19.55;;;23.80;79.00;;;;;;4970504;28;20434;-67
2021/09/07 09:06:53;;;;;;;;;;;24.10;77.80;;;;;;4962380;28;20069;-69
2021/09/07 09:09:18;;;;;;;30.75;19.48;;;24.40;76.40;;;;;;4967661;28;20237;-67
2021/09/07 09:11:56;;;;;;;32.65;19.40;;;24.60;75.20;;;;;;4980010;28;20186;-69
2021/09/07 09:14:36;;;;;;;35.67;19.30;;;24.90;74.30;;;;;;4963650;28;20193;-68
2021/09/07 09:17:27;;;;;;;34.85;19.85;;;25.20;72.70;;;;;;4965474;28;20186;-68
2021/09/07 09:19:57;;;;;;;;;;;25.60;71.50;;;;;;4966940;28;20069;-70
2021/09/07 09:22:39;;;;;;;;;;;25.80;70.50;;;;;;4965364;28;19921;-68
2021/09/07 09:25:22;;;;;;;;;;;26.10;69.20;;;;;;4966560;28;19921;-69
2021/09/07 09:27:49;;;;;;;;;;;26.30;68.00;;;;;;4970518;28;19922;-70
2021/09/07 09:30:16;;;;;;;;;;;26.40;67.00;;;;;;4978090;28;20692;-69
2021/09/07 09:32:51;;;;;;;;;;;26.60;66.20;;;;;;4955365;28;20592;-70
2021/09/07 09:35:17;;;;;;;;;;;26.70;65.30;;;;;;4951902;28;19910;-71
2021/09/07 09:38:12;;;;;;;;;;;27.00;64.40;;;;;;4973738;28;20279;-70
2021/09/07 09:40:38;;;;;;;30.40;18.92;;;27.20;63.80;;;;;;4952754;28;20213;-72
2021/09/07 09:43:30;;;;;;;30.42;17.90;;;27.40;63.00;;;;;;4975262;28;20197;-67
2021/09/07 09:45:56;;;;;;;28.42;17.38;;;27.60;61.70;;;;;;4971581;28;20736;-70
2021/09/07 09:48:29;;;;;;;29.67;17.25;;;27.80;60.80;;;;;;4965493;28;20200;-69
2021/09/07 09:50:57;;;;;;;32.85;17.80;;;28.00;59.70;;;;;;4963878;28;20213;-67
2021/09/07 09:53:24;;;;;;;26.70;18.15;;;28.10;58.80;;;;;;4963516;28;20192;-68
2021/09/07 09:55:50;;;;;;;28.98;17.63;;;28.20;58.20;;;;;;4964507;28;20189;-70
2021/09/07 09:58:17;;;;;;;27.85;16.42;;;28.30;57.20;;;;;;4970639;28;20197;-70
2021/09/07 10:00:47;;;;;;;27.08;15.30;;;28.40;57.00;;;;;;4981049;28;20189;-70
2021/09/07 10:03:14;;;;;;;26.25;16.33;;;28.50;56.60;;;;;;4964714;28;20709;-70
2021/09/07 10:05:44;;;;;;;29.15;18.55;;;28.60;56.30;;;;;;4964109;28;20265;-67
2021/09/07 10:08:11;;;;;;;29.50;18.42;;;28.60;55.50;;;;;;4966845;28;20189;-69
2021/09/07 10:10:40;;;;;;;25.50;18.02;;;28.60;55.20;;;;;;4965371;28;21043;-67
2021/09/07 10:13:09;;;;;;;28.30;18.67;;;28.60;54.80;;;;;;4964864;28;20189;-68
2021/09/07 10:15:43;;;;;;;27.08;17.33;;;28.50;54.80;;;;;;4964965;28;20673;-68
2021/09/07 10:21:16;;;;;;;29.05;17.95;;;28.50;55.90;;;;;;4968455;28;20746;-66
2021/09/07 10:23:50;;;;;;;28.50;17.83;;;28.60;55.50;;;;;;4966038;28;20663;-67
2021/09/07 10:26:16;;;;;;;;;;;28.80;55.20;;;;;;4966273;28;20035;-67
2021/09/07 10:28:43;;;;;;;;;;;29.00;55.00;;;;;;4976703;28;20025;-67
2021/09/07 10:31:14;;;;;;;27.48;17.70;;;29.10;54.80;;;;;;4969747;28;20300;-68
2021/09/07 10:33:41;;;;;;;26.08;18.67;;;29.30;54.50;;;;;;4969588;28;20255;-70
2021/09/07 10:36:11;;;;;;;;;;;29.60;53.90;;;;;;4973477;28;20034;-68
2021/09/07 10:38:37;;;;;;;30.70;18.25;;;29.90;53.80;;;;;;4967911;28;20246;-69
2021/09/07 10:41:03;;;;;;;24.88;17.73;;;30.30;52.40;;;;;;4968018;28;20193;-67
2021/09/07 10:44:14;;;;;;;25.23;17.10;;;30.80;51.00;;;;;;4968042;28;20224;-69
2021/09/07 10:46:49;;;;;;;24.60;16.85;;;31.30;49.70;;;;;;4965807;28;20692;-70
2021/09/07 10:49:46;;;;;;;24.58;16.48;;;31.70;48.70;;;;;;4977791;28;20200;-70
2021/09/07 10:52:23;;;;;;;19.30;13.07;;;32.20;47.20;;;;;;4969990;28;20193;-68
2021/09/07 10:55:06;;;;;;;25.05;17.48;;;32.80;46.50;;;;;;4972470;28;20048;-69
2021/09/07 10:57:32;;;;;;;25.65;16.85;;;33.30;44.80;;;;;;4972517;28;20288;-69
2021/09/07 11:00:01;;;;;;;24.73;15.65;;;33.60;43.70;;;;;;4971720;28;20288;-69
2021/09/07 11:02:29;;;;;;;23.63;16.00;;;33.90;42.70;;;;;;4972534;28;20193;-66
2021/09/07 11:04:56;;;;;;;22.00;14.43;;;34.10;41.60;;;;;;4973634;28;20213;-69
2021/09/07 11:07:40;;;;;;;25.52;17.13;;;34.60;40.60;;;;;;4954182;28;20922;-68
2021/09/07 11:10:16;;;;;;;23.38;16.60;;;35.10;39.70;;;;;;4969834;28;20184;-65
2021/09/07 11:12:54;;;;;;;23.00;16.27;;;35.40;39.10;;;;;;4976035;28;20261;-69
2021/09/07 11:15:23;;;;;;;21.67;15.23;;;35.80;38.60;;;;;;4966434;28;20193;-66
2021/09/07 11:17:52;;;;;;;23.15;15.80;;;36.10;38.00;;;;;;4964601;28;20204;-67
2021/09/07 11:20:19;;;;;;;25.65;16.75;;;36.50;37.10;;;;;;4971369;28;20265;-66
2021/09/07 11:22:45;;;;;;;26.77;16.48;;;36.70;36.50;;;;;;4970634;28;20275;-66
2021/09/07 11:25:14;;;;;;;22.63;15.32;;;36.70;36.00;;;;;;4965801;28;20252;-67
2021/09/07 11:27:56;;;;;;;19.30;14.05;;;36.70;35.90;;;;;;4967934;28;20185;-67
2021/09/07 11:30:26;;;;;;;25.20;14.85;;;36.80;35.20;;;;;;4965482;28;20182;-66
2021/09/07 11:33:02;;;;;;;23.60;14.02;;;37.00;35.10;;;;;;4973312;28;20209;-66
2021/09/07 11:35:30;;;;;;;18.15;12.95;;;37.00;34.80;;;;;;4972871;28;20719;-67
2021/09/07 11:38:01;;;;;;;25.77;17.02;;;37.20;34.80;;;;;;4966173;28;20194;-67
2021/09/07 11:40:28;;;;;;;27.60;18.15;;;37.30;34.40;;;;;;4967294;28;20193;-66
2021/09/07 11:42:55;;;;;;;28.23;17.30;;;37.30;34.40;;;;;;4969036;28;20271;-67
2021/09/07 11:45:34;;;;;;;25.52;18.60;;;37.40;34.70;;;;;;4947507;28;20216;-66
2021/09/07 11:48:03;;;;;;;25.83;17.27;;;37.40;34.50;;;;;;4968988;28;20196;-66
2021/09/07 11:50:31;;;;;;;20.98;16.08;;;37.50;34.30;;;;;;4967436;28;20197;-69
2021/09/07 11:53:00;;;;;;;22.00;14.50;;;37.80;34.10;;;;;;4959332;28;20197;-68
2021/09/07 11:55:41;;;;;;;17.80;12.25;;;38.00;33.80;;;;;;4975444;28;20221;-68
2021/09/07 11:58:08;;;;;;;21.98;14.73;;;38.20;33.80;;;;;;4968450;28;20197;-69
2021/09/07 12:00:35;;;;;;;21.23;15.52;;;38.40;33.00;;;;;;4969219;28;20181;-68
2021/09/07 12:03:15;;;;;;;20.02;13.93;;;38.50;32.60;;;;;;4966144;28;20283;-67
2021/09/07 12:05:57;;;;;;;20.15;12.30;;;38.40;32.60;;;;;;4966105;28;20213;-67
2021/09/07 12:08:37;;;;;;;14.63;11.52;;;38.50;32.50;;;;;;4972156;28;20256;-67
2021/09/07 12:11:04;;;;;;;16.88;11.15;;;38.50;32.00;;;;;;4966488;28;20189;-68
2021/09/07 12:13:31;;;;;;;14.38;11.30;;;38.60;32.10;;;;;;4967623;28;20627;-67
2021/09/07 12:15:57;;;;;;;16.80;12.25;;;38.60;32.20;;;;;;4949812;28;20197;-68
2021/09/07 12:18:39;;;;;;;14.75;10.98;;;38.50;31.90;;;;;;4970884;28;20188;-68
2021/09/07 12:21:12;;;;;;;;;;;38.40;31.80;;;;;;4949597;28;20200;-68
2021/09/07 12:23:39;;;;;;;;;;;38.50;31.90;;;;;;4975822;28;20037;-68
2021/09/07 12:26:05;;;;;;;17.70;11.82;;;38.50;31.80;;;;;;4966177;28;20437;-67
2021/09/07 12:28:32;;;;;;;18.50;12.27;;;38.50;31.70;;;;;;4967585;28;20231;-67
2021/09/07 12:31:20;;;;;;;21.83;12.90;;;38.40;31.80;;;;;;4968757;28;20189;-67
2021/09/07 12:33:53;;;;;;;20.03;12.10;;;38.40;31.90;;;;;;4957302;28;20180;-68
2021/09/07 12:36:21;;;;;;;12.98;10.57;;;38.40;31.90;;;;;;4968259;28;20390;-68
2021/09/07 12:38:47;;;;;;;;;;;38.30;31.80;;;;;;4967322;28;20224;-67